Time;durP1;ratioP1;P1;durP2;ratioP2;P2;SDS_P1;SDS_P2;PMS_P1;PMS_P2;Temp;Humidity;BMP_temperature;BMP_pressure;BME280_temperature;BME280_humidity;BME280_pressure;Samples;Min_cycle;Max_cycle;Signal;HPM_P1;HPM_P2
2022/04/09 00:00:52;;;;;;;3.35;2.60;;;12.80;59.20;;;;;;5055885;28;20065;-67
2022/04/09 00:03:18;;;;;;;3.03;2.50;;;12.70;59.20;;;;;;5055463;28;20120;-67
2022/04/09 00:05:43;;;;;;;3.42;2.50;;;12.80;59.20;;;;;;5055012;28;20060;-68
2022/04/09 00:08:09;;;;;;;3.58;2.97;;;12.70;59.20;;;;;;5054295;28;20095;-68
2022/04/09 00:10:35;;;;;;;2.75;2.47;;;12.70;59.20;;;;;;5055430;28;20032;-68
2022/04/09 00:13:00;;;;;;;3.58;2.70;;;12.70;59.20;;;;;;5055413;28;20029;-68
2022/04/09 00:15:26;;;;;;;3.17;2.60;;;12.70;59.20;;;;;;5055450;28;20403;-68
2022/04/09 00:17:52;;;;;;;3.95;2.53;;;12.70;59.20;;;;;;5055215;28;20455;-68
2022/04/09 00:20:18;;;;;;;3.85;2.70;;;12.70;59.20;;;;;;5055584;28;20025;-68
2022/04/09 00:22:44;;;;;;;2.70;2.40;;;12.70;59.20;;;;;;5055014;28;20025;-68
2022/04/09 00:25:12;;;;;;;3.88;2.33;;;12.70;59.20;;;;;;5055117;28;20055;-68
2022/04/09 00:27:38;;;;;;;3.72;2.60;;;12.60;59.10;;;;;;5054373;28;20043;-68
2022/04/09 00:30:06;;;;;;;3.38;2.40;;;12.60;59.10;;;;;;5054546;28;20029;-68
2022/04/09 00:32:32;;;;;;;3.15;2.50;;;12.70;59.10;;;;;;5054879;28;20430;-68
2022/04/09 00:34:58;;;;;;;2.47;2.28;;;12.60;59.00;;;;;;5053773;28;20033;-68
2022/04/09 00:37:23;;;;;;;2.88;2.45;;;12.60;59.00;;;;;;5054938;28;20371;-68
2022/04/09 00:39:49;;;;;;;2.50;2.30;;;12.70;59.00;;;;;;5054965;28;20471;-68
2022/04/09 00:42:17;;;;;;;2.85;2.30;;;12.70;59.00;;;;;;5054644;28;20509;-67
2022/04/09 00:44:43;;;;;;;3.35;2.50;;;12.60;59.00;;;;;;5054715;28;20382;-68
2022/04/09 00:47:09;;;;;;;3.30;2.60;;;12.60;58.90;;;;;;5054492;28;20107;-68
2022/04/09 00:49:39;;;;;;;2.92;2.53;;;12.60;58.90;;;;;;5054543;28;20430;-68
2022/04/09 00:52:07;;;;;;;2.60;2.30;;;12.60;59.00;;;;;;5054711;28;20034;-68
2022/04/09 00:54:35;;;;;;;3.10;2.40;;;12.60;59.00;;;;;;5053405;28;20491;-68
2022/04/09 00:57:05;;;;;;;2.83;2.50;;;12.60;59.00;;;;;;5054386;28;20051;-68
2022/04/09 00:59:32;;;;;;;3.35;2.20;;;12.50;59.00;;;;;;5054733;28;20103;-68
2022/04/09 01:01:59;;;;;;;2.55;2.35;;;12.50;59.00;;;;;;5054199;28;20053;-68
2022/04/09 01:04:24;;;;;;;2.50;2.30;;;12.50;59.00;;;;;;5054258;28;20434;-68
2022/04/09 01:06:51;;;;;;;2.42;2.22;;;12.50;59.00;;;;;;5054135;28;20025;-68
2022/04/09 01:09:17;;;;;;;2.85;2.40;;;12.50;59.00;;;;;;5053129;28;20029;-67
2022/04/09 01:11:43;;;;;;;3.70;2.40;;;12.50;59.00;;;;;;5054331;28;20104;-68
2022/04/09 01:14:11;;;;;;;2.58;2.20;;;12.50;59.00;;;;;;5054075;28;20386;-68
2022/04/09 01:16:36;;;;;;;2.55;2.35;;;12.50;59.00;;;;;;5052768;28;20479;-68
2022/04/09 01:19:02;;;;;;;2.50;2.30;;;12.40;59.00;;;;;;5054168;28;20025;-69
2022/04/09 01:21:28;;;;;;;2.95;2.20;;;12.40;58.90;;;;;;5054263;28;20060;-68
2022/04/09 01:23:55;;;;;;;2.30;2.10;;;12.40;59.00;;;;;;5054019;28;20107;-68
2022/04/09 01:26:22;;;;;;;2.47;2.28;;;12.40;59.00;;;;;;5053696;28;20060;-68
2022/04/09 01:28:48;;;;;;;2.42;2.22;;;12.40;59.00;;;;;;5054097;28;20024;-68
2022/04/09 01:31:15;;;;;;;2.40;2.10;;;12.40;59.00;;;;;;5054082;28;20040;-67
2022/04/09 01:33:41;;;;;;;2.90;2.33;;;12.40;59.00;;;;;;5052624;28;20025;-68
2022/04/09 01:36:06;;;;;;;2.30;2.15;;;12.30;58.90;;;;;;5053898;28;20041;-68
2022/04/09 01:38:34;;;;;;;3.13;1.95;;;12.30;58.90;;;;;;5054081;28;20028;-68
2022/04/09 01:41:00;;;;;;;3.33;2.22;;;12.30;58.90;;;;;;5053602;28;20029;-68
2022/04/09 01:43:26;;;;;;;2.92;2.25;;;12.40;58.90;;;;;;5052533;28;20025;-68
2022/04/09 01:45:52;;;;;;;2.20;2.00;;;12.40;58.90;;;;;;5053516;28;20522;-69
2022/04/09 01:48:18;;;;;;;2.50;2.10;;;12.30;58.90;;;;;;5053412;28;20036;-68
2022/04/09 01:50:44;;;;;;;2.20;2.00;;;12.30;58.90;;;;;;5053801;28;20036;-68
2022/04/09 01:53:09;;;;;;;2.40;2.20;;;12.30;58.80;;;;;;5052479;28;20029;-68
2022/04/09 01:55:35;;;;;;;2.15;2.03;;;12.30;58.80;;;;;;5053715;28;20036;-68
2022/04/09 01:58:01;;;;;;;2.40;2.20;;;12.30;58.80;;;;;;5052362;28;20082;-68
2022/04/09 02:00:27;;;;;;;2.85;2.10;;;12.30;58.80;;;;;;5053364;28;20032;-68
2022/04/09 02:02:52;;;;;;;2.17;1.98;;;12.30;58.80;;;;;;5053516;28;20029;-67
2022/04/09 02:05:19;;;;;;;2.20;2.00;;;12.30;58.80;;;;;;5053488;28;20503;-68
2022/04/09 02:07:47;;;;;;;2.00;1.90;;;12.30;58.80;;;;;;5052230;28;20028;-67
2022/04/09 02:10:13;;;;;;;2.13;2.00;;;12.30;58.70;;;;;;5053464;28;20530;-68
2022/04/09 02:12:39;;;;;;;2.10;1.90;;;12.30;58.70;;;;;;5052293;28;20426;-68
2022/04/09 02:15:07;;;;;;;2.13;2.00;;;12.20;58.70;;;;;;5051879;28;20041;-68
2022/04/09 02:17:36;;;;;;;2.13;1.92;;;12.20;58.60;;;;;;5052946;28;20036;-68
2022/04/09 02:20:03;;;;;;;2.20;2.00;;;12.30;58.70;;;;;;5053457;28;20421;-68
2022/04/09 02:22:35;;;;;;;2.05;1.88;;;12.20;58.60;;;;;;5053735;28;20029;-68
2022/04/09 02:25:05;;;;;;;1.80;1.70;;;12.30;58.70;;;;;;5052993;28;20025;-68
2022/04/09 02:27:31;;;;;;;2.22;1.83;;;12.20;59.20;;;;;;5052046;28;20025;-68
2022/04/09 02:29:57;;;;;;;2.05;1.88;;;12.30;58.60;;;;;;5053232;28;20411;-68
2022/04/09 02:32:24;;;;;;;2.88;1.90;;;12.20;58.60;;;;;;5053026;28;20037;-68
2022/04/09 02:34:52;;;;;;;2.00;1.90;;;12.20;58.60;;;;;;5053167;28;20029;-68
2022/04/09 02:37:18;;;;;;;2.15;1.95;;;12.20;58.50;;;;;;5053439;28;20024;-68
2022/04/09 02:39:44;;;;;;;1.90;1.80;;;12.20;58.50;;;;;;5053318;28;20025;-68
2022/04/09 02:42:10;;;;;;;1.80;1.70;;;12.20;58.50;;;;;;5051891;28;20025;-68
2022/04/09 02:44:36;;;;;;;1.85;1.75;;;12.20;58.50;;;;;;5052909;28;20072;-68
2022/04/09 02:47:02;;;;;;;2.03;1.83;;;12.20;58.50;;;;;;5053857;28;20532;-67
2022/04/09 02:49:27;;;;;;;2.10;1.90;;;12.20;58.50;;;;;;5053207;28;20418;-67
2022/04/09 02:51:53;;;;;;;3.15;2.00;;;12.20;58.50;;;;;;5054895;28;20033;-68
2022/04/09 02:54:19;;;;;;;2.00;1.90;;;12.20;58.50;;;;;;5055704;28;20083;-67
2022/04/09 02:56:46;;;;;;;2.05;1.85;;;12.20;58.50;;;;;;5055754;28;20455;-68
2022/04/09 02:59:13;;;;;;;2.20;2.00;;;12.20;58.50;;;;;;5056758;28;20025;-68
2022/04/09 03:01:45;;;;;;;2.00;1.90;;;12.20;58.50;;;;;;5056864;28;20199;-68
2022/04/09 03:04:11;;;;;;;2.20;2.00;;;12.20;58.40;;;;;;5056760;28;20455;-68
2022/04/09 03:06:36;;;;;;;2.00;1.90;;;12.20;58.40;;;;;;5055733;28;20028;-68
2022/04/09 03:09:03;;;;;;;2.10;1.95;;;12.20;58.40;;;;;;5056416;28;20047;-68
2022/04/09 03:11:28;;;;;;;2.03;1.92;;;12.20;58.40;;;;;;5055170;28;20108;-68
2022/04/09 03:13:54;;;;;;;2.38;2.17;;;12.20;58.40;;;;;;5056510;28;20104;-68
2022/04/09 03:16:19;;;;;;;2.08;1.92;;;12.20;58.30;;;;;;5056322;28;20021;-68
2022/04/09 03:18:45;;;;;;;2.47;1.98;;;12.20;58.30;;;;;;5056332;28;20025;-68
2022/04/09 03:21:11;;;;;;;1.90;1.80;;;12.20;58.30;;;;;;5055955;28;20452;-69
2022/04/09 03:23:36;;;;;;;2.33;2.13;;;12.20;58.20;;;;;;5056209;28;20032;-69
2022/04/09 03:26:02;;;;;;;2.58;2.08;;;12.20;58.30;;;;;;5055975;28;20040;-67
2022/04/09 03:28:28;;;;;;;2.10;2.00;;;12.20;58.20;;;;;;5056166;28;20028;-69
2022/04/09 03:30:54;;;;;;;2.10;1.90;;;12.20;58.20;;;;;;5056237;28;20068;-66
2022/04/09 03:33:19;;;;;;;2.05;1.88;;;12.20;58.20;;;;;;5054934;28;20029;-67
2022/04/09 03:35:47;;;;;;;2.00;1.90;;;12.20;58.20;;;;;;5055298;28;20083;-67
2022/04/09 03:38:13;;;;;;;2.58;1.90;;;12.20;58.20;;;;;;5054837;28;20112;-67
2022/04/09 03:40:39;;;;;;;3.22;2.28;;;12.20;58.10;;;;;;5055732;28;20448;-68
2022/04/09 03:43:05;;;;;;;1.90;1.80;;;12.20;58.10;;;;;;5055099;28;20029;-67
2022/04/09 03:45:31;;;;;;;2.05;1.95;;;12.20;58.00;;;;;;5055605;28;20032;-67
2022/04/09 03:47:56;;;;;;;2.20;2.10;;;12.30;58.10;;;;;;5055699;28;20048;-67
2022/04/09 03:50:22;;;;;;;2.33;1.98;;;12.30;58.10;;;;;;5055853;28;20032;-69
2022/04/09 03:52:51;;;;;;;2.63;1.90;;;12.30;58.00;;;;;;5055626;28;20025;-69
2022/04/09 03:55:16;;;;;;;2.00;1.80;;;12.30;58.00;;;;;;5054445;28;20556;-68
2022/04/09 03:57:42;;;;;;;2.47;1.92;;;12.30;58.00;;;;;;5055707;28;20103;-67
2022/04/09 04:00:09;;;;;;;3.08;2.00;;;12.30;58.00;;;;;;5054326;28;20028;-67
2022/04/09 04:02:35;;;;;;;2.10;1.90;;;12.30;58.00;;;;;;5054956;28;20512;-67
2022/04/09 04:05:03;;;;;;;2.10;1.90;;;12.30;58.00;;;;;;5053856;28;20053;-67
2022/04/09 04:07:30;;;;;;;2.70;2.20;;;12.30;58.00;;;;;;5055599;28;20028;-67
2022/04/09 04:09:55;;;;;;;2.15;2.00;;;12.30;58.00;;;;;;5055230;28;20033;-68
2022/04/09 04:12:21;;;;;;;2.33;2.13;;;12.30;58.00;;;;;;5055701;28;20040;-67
2022/04/09 04:14:47;;;;;;;3.28;2.38;;;12.30;58.00;;;;;;5055005;28;20037;-68
2022/04/09 04:17:13;;;;;;;3.95;2.40;;;12.40;58.00;;;;;;5054932;28;20029;-67
2022/04/09 04:19:39;;;;;;;4.68;2.70;;;12.40;58.00;;;;;;5055102;28;20086;-67
2022/04/09 04:22:05;;;;;;;5.07;2.40;;;12.40;58.00;;;;;;5055162;28;20024;-68
2022/04/09 04:24:31;;;;;;;4.00;2.78;;;12.40;58.00;;;;;;5054801;28;20422;-68
2022/04/09 04:26:57;;;;;;;5.25;2.63;;;12.40;57.90;;;;;;5054933;28;20025;-68
2022/04/09 04:29:22;;;;;;;3.85;2.60;;;12.50;58.00;;;;;;5055059;28;20451;-68
2022/04/09 04:31:48;;;;;;;4.38;2.60;;;12.50;57.90;;;;;;5055108;28;20028;-68
2022/04/09 04:34:13;;;;;;;3.50;2.60;;;12.50;57.90;;;;;;5053658;28;20029;-68
2022/04/09 04:36:39;;;;;;;4.32;2.63;;;12.60;58.00;;;;;;5054793;28;20107;-68
2022/04/09 04:39:05;;;;;;;3.10;2.33;;;12.60;57.90;;;;;;5054535;28;20039;-67
2022/04/09 04:41:30;;;;;;;3.80;2.40;;;12.60;57.90;;;;;;5055156;28;20079;-67
2022/04/09 04:43:56;;;;;;;3.15;2.20;;;12.70;57.90;;;;;;5055178;28;20021;-67
2022/04/09 04:46:22;;;;;;;3.78;2.45;;;12.70;57.80;;;;;;5054596;28;20033;-67
2022/04/09 04:48:47;;;;;;;2.47;2.00;;;12.80;58.40;;;;;;5054495;28;20447;-67
2022/04/09 04:51:14;;;;;;;2.72;2.00;;;12.80;57.80;;;;;;5054669;28;20029;-67
2022/04/09 04:53:39;;;;;;;2.33;2.03;;;12.90;57.70;;;;;;5053101;28;20032;-67
2022/04/09 04:56:05;;;;;;;2.03;1.83;;;12.90;57.70;;;;;;5054387;28;20407;-67
2022/04/09 04:58:31;;;;;;;2.47;1.90;;;12.90;57.60;;;;;;5054603;28;20375;-67
2022/04/09 05:00:56;;;;;;;2.38;1.90;;;13.00;57.60;;;;;;5054656;28;20036;-67
2022/04/09 05:03:22;;;;;;;3.08;1.90;;;13.00;57.50;;;;;;5054326;28;20028;-68
2022/04/09 05:05:48;;;;;;;2.42;1.80;;;13.10;57.50;;;;;;5054057;28;20045;-68
2022/04/09 05:08:13;;;;;;;2.33;2.03;;;13.10;57.40;;;;;;5054291;28;20456;-68
2022/04/09 05:10:39;;;;;;;2.38;2.05;;;13.10;57.30;;;;;;5047189;28;20057;-68
2022/04/09 05:13:05;;;;;;;2.10;1.90;;;13.20;57.40;;;;;;5043378;28;20033;-68
2022/04/09 05:15:31;;;;;;;1.70;1.60;;;13.20;57.30;;;;;;5040247;28;20032;-67
2022/04/09 05:17:57;;;;;;;1.80;1.70;;;13.30;57.30;;;;;;5039755;28;20038;-68
2022/04/09 05:20:23;;;;;;;2.20;2.00;;;13.30;57.20;;;;;;5043393;28;20378;-68
2022/04/09 05:22:48;;;;;;;2.00;1.80;;;13.40;57.20;;;;;;5050743;28;20427;-68
2022/04/09 05:25:18;;;;;;;2.47;1.90;;;13.40;57.10;;;;;;5052605;28;20033;-67
2022/04/09 05:27:44;;;;;;;2.03;1.92;;;13.50;57.10;;;;;;5052515;28;20029;-68
2022/04/09 05:30:10;;;;;;;2.92;2.25;;;13.50;57.00;;;;;;5054007;28;20429;-68
2022/04/09 05:32:36;;;;;;;3.03;2.03;;;13.60;57.00;;;;;;5052107;28;20029;-68
2022/04/09 05:35:09;;;;;;;2.95;2.10;;;13.60;56.90;;;;;;5052230;28;20391;-70
2022/04/09 05:37:35;;;;;;;1.90;1.80;;;13.70;56.90;;;;;;5053713;28;20412;-68
2022/04/09 05:40:01;;;;;;;2.17;1.90;;;13.70;56.80;;;;;;5054100;28;20056;-68
2022/04/09 05:42:26;;;;;;;2.30;2.10;;;13.80;56.80;;;;;;5053650;28;20024;-67
2022/04/09 05:44:53;;;;;;;2.28;2.00;;;13.80;56.70;;;;;;5053602;28;20029;-68
2022/04/09 05:47:19;;;;;;;2.33;2.00;;;13.90;56.60;;;;;;5051834;28;20054;-67
2022/04/09 05:49:44;;;;;;;3.13;2.03;;;13.90;56.60;;;;;;5053377;28;20112;-70
2022/04/09 05:52:10;;;;;;;2.17;1.98;;;14.00;56.60;;;;;;5053084;28;20032;-68
2022/04/09 05:54:36;;;;;;;2.20;1.75;;;14.00;56.40;;;;;;5053307;28;20083;-68
2022/04/09 05:57:02;;;;;;;1.92;1.73;;;14.00;56.40;;;;;;5053223;28;20045;-68
2022/04/09 05:59:30;;;;;;;2.08;1.80;;;14.10;56.40;;;;;;5053628;28;20029;-68
2022/04/09 06:01:56;;;;;;;2.03;1.90;;;14.20;56.40;;;;;;5052309;28;20116;-67
2022/04/09 06:04:21;;;;;;;1.65;1.55;;;14.20;56.40;;;;;;5051695;28;20144;-68
2022/04/09 06:06:48;;;;;;;1.70;1.50;;;14.30;56.60;;;;;;5052190;28;20356;-68
2022/04/09 06:09:15;;;;;;;1.60;1.50;;;14.30;56.60;;;;;;5053434;28;20040;-68
2022/04/09 06:11:41;;;;;;;1.50;1.40;;;14.40;56.50;;;;;;5053182;28;20035;-67
2022/04/09 06:14:08;;;;;;;1.40;1.30;;;14.50;56.40;;;;;;5053044;28;20032;-68
2022/04/09 06:16:35;;;;;;;1.50;1.40;;;14.50;56.30;;;;;;5052113;28;20033;-67
2022/04/09 06:19:01;;;;;;;1.48;1.40;;;14.50;56.10;;;;;;5053046;28;20112;-67
2022/04/09 06:21:29;;;;;;;1.40;1.30;;;14.50;56.00;;;;;;5052195;28;20127;-70
2022/04/09 06:23:56;;;;;;;2.40;1.30;;;14.60;56.00;;;;;;5052112;28;20383;-69
2022/04/09 06:26:22;;;;;;;2.22;1.58;;;14.60;55.80;;;;;;5053762;28;20051;-69
2022/04/09 06:28:48;;;;;;;1.50;1.40;;;14.70;55.80;;;;;;5057241;28;20021;-72
2022/04/09 06:31:14;;;;;;;1.55;1.45;;;14.70;55.70;;;;;;5057460;28;20494;-66
2022/04/09 06:33:39;;;;;;;1.50;1.40;;;14.80;55.60;;;;;;5057138;28;20025;-64
2022/04/09 06:36:05;;;;;;;2.00;1.60;;;14.80;55.70;;;;;;5056962;28;20082;-69
2022/04/09 06:38:33;;;;;;;1.77;1.40;;;14.90;55.70;;;;;;5057108;28;20455;-64
2022/04/09 06:40:59;;;;;;;1.75;1.50;;;15.00;55.20;;;;;;5057189;28;20028;-67
2022/04/09 06:43:26;;;;;;;1.50;1.40;;;15.00;56.50;;;;;;5055600;28;20052;-66
2022/04/09 06:45:52;;;;;;;1.73;1.23;;;15.20;56.60;;;;;;5056723;28;20198;-66
2022/04/09 06:48:18;;;;;;;1.83;1.10;;;15.30;56.50;;;;;;5056749;28;20057;-70
2022/04/09 06:50:43;;;;;;;1.33;1.10;;;15.40;56.50;;;;;;5056845;28;20068;-70
2022/04/09 06:53:09;;;;;;;2.03;1.30;;;15.30;56.30;;;;;;5056678;28;20121;-71
2022/04/09 06:55:35;;;;;;;1.15;1.10;;;15.30;56.40;;;;;;5056634;28;20037;-71
2022/04/09 06:58:02;;;;;;;1.45;1.35;;;15.20;56.40;;;;;;5043521;28;20029;-74
2022/04/09 07:00:28;;;;;;;1.23;1.23;;;15.20;56.50;;;;;;5045940;28;20485;-73
2022/04/09 07:02:54;;;;;;;1.40;1.30;;;15.10;56.60;;;;;;5045127;28;20477;-73
2022/04/09 07:05:20;;;;;;;1.52;1.42;;;15.00;56.60;;;;;;5043671;28;20093;-73
2022/04/09 07:07:48;;;;;;;1.50;1.40;;;15.00;56.70;;;;;;5043971;28;20053;-73
2022/04/09 07:10:15;;;;;;;1.48;1.38;;;15.00;56.70;;;;;;5043896;28;20021;-74
2022/04/09 07:12:41;;;;;;;1.33;1.23;;;15.00;57.60;;;;;;5043976;28;20789;-74
2022/04/09 07:15:07;;;;;;;2.97;1.40;;;14.90;57.00;;;;;;5042357;28;20079;-72
2022/04/09 07:17:33;;;;;;;1.30;1.20;;;14.90;57.10;;;;;;5040438;28;20087;-73
2022/04/09 07:20:01;;;;;;;1.58;1.30;;;14.90;57.10;;;;;;5045154;28;20029;-72
2022/04/09 07:22:27;;;;;;;1.50;1.40;;;14.90;57.30;;;;;;5043588;28;20028;-73
2022/04/09 07:24:53;;;;;;;1.50;1.40;;;14.90;57.30;;;;;;5045336;28;20069;-73
2022/04/09 07:27:20;;;;;;;1.35;1.25;;;14.90;57.20;;;;;;5044069;28;20034;-72
2022/04/09 07:29:46;;;;;;;1.25;1.23;;;14.90;57.50;;;;;;5043812;28;20092;-73
2022/04/09 07:32:12;;;;;;;1.20;1.20;;;14.90;57.60;;;;;;5045101;28;20032;-73
2022/04/09 07:34:38;;;;;;;1.17;1.17;;;14.90;57.60;;;;;;5043743;28;20041;-72
2022/04/09 07:37:04;;;;;;;1.30;1.20;;;14.90;57.70;;;;;;5043719;28;20104;-75
2022/04/09 07:39:30;;;;;;;1.13;1.08;;;14.90;57.80;;;;;;5045119;28;20529;-72
2022/04/09 07:41:56;;;;;;;1.40;1.30;;;14.90;57.70;;;;;;5042768;28;20105;-73
2022/04/09 07:44:23;;;;;;;2.03;1.42;;;14.90;57.70;;;;;;5043694;28;20028;-72
2022/04/09 07:46:49;;;;;;;1.40;1.30;;;14.80;57.70;;;;;;5044584;28;20063;-72
2022/04/09 07:49:15;;;;;;;1.60;1.50;;;14.90;57.90;;;;;;5043073;28;20053;-73
2022/04/09 07:51:41;;;;;;;2.08;1.65;;;14.90;57.90;;;;;;5044404;28;20494;-73
2022/04/09 07:54:07;;;;;;;1.30;1.20;;;14.80;58.00;;;;;;5044477;28;20033;-74
2022/04/09 07:56:32;;;;;;;1.30;1.20;;;14.90;58.00;;;;;;5041578;28;20028;-72
2022/04/09 07:58:58;;;;;;;1.70;1.60;;;14.80;57.90;;;;;;5044618;28;20475;-77
2022/04/09 08:01:24;;;;;;;1.50;1.40;;;14.90;58.00;;;;;;5044033;28;20026;-72
2022/04/09 08:03:49;;;;;;;1.25;1.15;;;14.90;58.00;;;;;;5043367;28;20029;-73
2022/04/09 08:06:16;;;;;;;1.50;1.40;;;14.90;58.10;;;;;;5040821;28;20049;-71
2022/04/09 08:08:41;;;;;;;1.23;1.15;;;14.90;57.90;;;;;;5040228;28;20038;-70
2022/04/09 08:11:08;;;;;;;1.38;1.13;;;14.90;57.90;;;;;;5045527;28;20040;-70
2022/04/09 08:13:34;;;;;;;1.25;1.23;;;14.90;57.90;;;;;;5054055;28;20021;-69
2022/04/09 08:16:00;;;;;;;1.25;1.20;;;15.00;57.90;;;;;;5053982;28;20040;-70
2022/04/09 08:18:25;;;;;;;1.40;1.30;;;15.00;57.90;;;;;;5054370;28;20068;-70
2022/04/09 08:20:51;;;;;;;1.60;1.40;;;15.00;58.10;;;;;;5054267;28;20481;-70
2022/04/09 08:23:17;;;;;;;1.50;1.40;;;15.00;58.30;;;;;;5054314;28;20123;-69
2022/04/09 08:25:43;;;;;;;1.70;1.40;;;15.00;57.90;;;;;;5053790;28;20194;-70
2022/04/09 08:28:08;;;;;;;1.67;1.30;;;15.00;57.70;;;;;;5053883;28;20126;-70
2022/04/09 08:30:35;;;;;;;1.23;1.20;;;15.00;57.50;;;;;;5053945;28;20479;-70
2022/04/09 08:33:05;;;;;;;2.90;1.25;;;15.20;57.10;;;;;;5052792;28;20029;-70
2022/04/09 08:35:31;;;;;;;1.30;1.20;;;15.30;56.70;;;;;;5049744;28;20065;-70
2022/04/09 08:37:57;;;;;;;1.17;1.10;;;15.30;56.30;;;;;;5052445;28;20098;-70
2022/04/09 08:40:24;;;;;;;1.13;1.10;;;15.40;56.10;;;;;;5053567;28;20021;-70
2022/04/09 08:42:49;;;;;;;1.20;1.17;;;15.50;55.70;;;;;;5053391;28;20033;-70
2022/04/09 08:45:16;;;;;;;1.08;1.08;;;15.60;55.50;;;;;;5053730;28;20037;-70
2022/04/09 08:47:43;;;;;;;1.20;1.20;;;15.70;55.20;;;;;;5045804;28;20418;-69
2022/04/09 08:50:14;;;;;;;1.33;1.23;;;15.70;55.00;;;;;;5039587;28;20029;-69
2022/04/09 08:52:42;;;;;;;1.10;1.00;;;15.80;54.80;;;;;;5033243;28;20510;-68
2022/04/09 08:55:09;;;;;;;1.33;1.20;;;15.80;54.50;;;;;;5033293;28;20141;-69
2022/04/09 08:57:35;;;;;;;1.30;1.20;;;15.90;54.40;;;;;;5032880;28;20427;-68
2022/04/09 09:00:13;;;;;;;1.98;1.20;;;15.90;54.20;;;;;;5034281;28;20095;-69
2022/04/09 09:02:56;;;;;;;1.10;1.10;;;15.90;54.10;;;;;;5034607;28;20096;-69
2022/04/09 09:05:38;;;;;;;1.50;1.40;;;16.00;53.90;;;;;;5034257;28;20132;-68
2022/04/09 09:08:05;;;;;;;1.23;1.20;;;16.00;53.80;;;;;;5032672;28;20022;-70
2022/04/09 09:10:31;;;;;;;1.00;1.00;;;16.00;53.70;;;;;;5034256;28;20036;-69
2022/04/09 09:13:05;;;;;;;1.17;1.10;;;16.10;53.70;;;;;;5032880;28;20029;-72
2022/04/09 09:15:55;;;;;;;1.15;1.05;;;16.10;53.50;;;;;;5034244;28;20092;-70
2022/04/09 09:18:28;;;;;;;1.30;1.20;;;16.10;53.30;;;;;;5033862;28;20038;-68
2022/04/09 09:20:55;;;;;;;1.50;1.40;;;16.10;53.30;;;;;;5033990;28;20045;-70
2022/04/09 09:23:25;;;;;;;1.20;1.10;;;16.20;53.30;;;;;;5041344;28;20155;-69
2022/04/09 09:25:54;;;;;;;1.27;1.17;;;16.20;53.20;;;;;;5041202;28;20044;-70
2022/04/09 09:28:30;;;;;;;1.75;1.30;;;16.20;53.20;;;;;;5051199;28;20045;-69
2022/04/09 09:30:57;;;;;;;1.20;1.20;;;16.30;53.20;;;;;;5052574;28;20060;-70
2022/04/09 09:36:52;;;;;;;1.55;1.45;;;16.30;53.00;;;;;;5061654;28;20490;-70
2022/04/09 09:40:26;;;;;;;1.27;1.17;;;16.40;52.90;;;;;;5050509;28;20033;-69
2022/04/09 09:43:21;;;;;;;1.05;1.05;;;16.40;52.70;;;;;;5052670;28;20487;-69
2022/04/09 09:45:51;;;;;;;1.40;1.30;;;16.40;52.60;;;;;;5052384;28;20072;-70
2022/04/09 09:48:35;;;;;;;1.58;1.08;;;16.40;52.70;;;;;;5053380;28;20471;-69
2022/04/09 09:51:06;;;;;;;1.30;1.20;;;16.50;52.60;;;;;;5051858;28;20120;-69
2022/04/09 09:53:40;;;;;;;1.40;1.30;;;16.50;52.60;;;;;;5052689;28;20478;-69
2022/04/09 09:56:09;;;;;;;;;;;16.60;52.50;;;;;;5054056;28;20028;-69
2022/04/09 09:58:46;;;;;;;1.48;1.10;;;16.60;52.30;;;;;;5053173;28;19905;-70
2022/04/09 10:01:20;;;;;;;1.30;1.20;;;16.60;52.40;;;;;;5053275;28;20025;-70
2022/04/09 10:03:47;;;;;;;1.10;1.10;;;16.70;52.40;;;;;;5053244;28;20033;-69
2022/04/09 10:06:13;;;;;;;1.40;1.30;;;16.70;52.30;;;;;;5052675;28;20083;-70
2022/04/09 10:08:39;;;;;;;2.25;1.35;;;16.70;52.20;;;;;;5053335;28;20482;-70
2022/04/09 10:11:05;;;;;;;2.20;1.30;;;16.70;52.20;;;;;;5053313;28;20029;-69
2022/04/09 10:13:34;;;;;;;1.45;1.35;;;16.80;52.20;;;;;;5052961;28;20028;-70
2022/04/09 10:16:01;;;;;;;1.48;1.25;;;16.80;52.10;;;;;;5053071;28;20402;-70
2022/04/09 10:18:27;;;;;;;1.33;1.23;;;16.80;52.00;;;;;;5053096;28;20112;-69
2022/04/09 10:21:01;;;;;;;1.55;1.40;;;16.90;52.10;;;;;;5051906;28;20168;-70
2022/04/09 10:23:33;;;;;;;1.30;1.20;;;16.90;52.00;;;;;;5053494;28;20453;-69
2022/04/09 10:26:01;;;;;;;1.20;1.00;;;16.90;51.90;;;;;;5052941;28;20046;-69
2022/04/09 10:28:36;;;;;;;1.85;1.10;;;17.00;51.90;;;;;;5053284;28;20021;-69
2022/04/09 10:31:22;;;;;;;1.52;1.20;;;17.00;51.80;;;;;;5053036;28;20083;-69
2022/04/09 10:33:55;;;;;;;1.67;1.05;;;17.10;51.90;;;;;;5052895;28;20364;-69
2022/04/09 10:36:40;;;;;;;1.08;1.00;;;17.10;51.80;;;;;;5052667;28;20033;-69
2022/04/09 10:42:46;;;;;;;1.20;1.05;;;17.20;51.60;;;;;;5056710;28;20029;-69
2022/04/09 10:45:12;;;;;;;2.25;1.27;;;17.20;51.60;;;;;;5052795;28;20029;-69
2022/04/09 10:48:09;;;;;;;1.33;1.10;;;17.20;51.60;;;;;;5051732;28;20029;-69
2022/04/09 10:50:56;;;;;;;1.25;1.17;;;17.30;51.60;;;;;;5052353;28;20118;-69
2022/04/09 10:53:25;;;;;;;1.48;1.38;;;17.30;51.50;;;;;;5052993;28;20036;-69
2022/04/09 10:56:14;;;;;;;2.53;1.40;;;17.40;51.60;;;;;;5052517;28;20029;-69
2022/04/09 10:59:13;;;;;;;1.65;1.20;;;17.40;51.40;;;;;;5050988;28;20044;-69
2022/04/09 11:01:51;;;;;;;1.52;1.27;;;17.40;51.30;;;;;;5051905;28;20029;-69
2022/04/09 11:04:43;;;;;;;2.08;1.48;;;17.40;51.40;;;;;;5051268;28;20039;-69
2022/04/09 11:07:22;;;;;;;2.45;1.50;;;17.50;51.30;;;;;;5052571;28;20052;-69
2022/04/09 11:09:52;;;;;;;2.42;1.30;;;17.50;51.40;;;;;;5051744;28;20025;-69
2022/04/09 11:12:19;;;;;;;1.70;1.45;;;17.60;51.50;;;;;;5053128;28;20112;-69
2022/04/09 11:14:48;;;;;;;3.30;1.50;;;17.60;51.40;;;;;;5056061;28;20047;-69
2022/04/09 11:17:22;;;;;;;3.63;1.70;;;17.60;51.40;;;;;;5056552;28;20090;-69
2022/04/09 11:19:49;;;;;;;2.42;1.60;;;17.70;51.40;;;;;;5056475;28;20398;-69
2022/04/09 11:22:15;;;;;;;1.50;1.40;;;17.70;51.30;;;;;;5056365;28;20075;-70
2022/04/09 11:24:41;;;;;;;1.77;1.50;;;17.80;51.40;;;;;;5056088;28;20021;-69
2022/04/09 11:27:07;;;;;;;2.28;1.67;;;17.80;51.30;;;;;;5056078;28;20021;-69
2022/04/09 11:29:37;;;;;;;1.83;1.33;;;17.80;51.30;;;;;;5054621;28;20025;-69
2022/04/09 11:32:04;;;;;;;2.80;1.75;;;17.90;51.30;;;;;;5054702;28;20025;-69
2022/04/09 11:34:55;;;;;;;2.42;1.60;;;18.00;51.40;;;;;;5056175;28;20047;-69
2022/04/09 11:37:23;;;;;;;1.80;1.55;;;18.00;51.20;;;;;;5055933;28;20025;-69
2022/04/09 11:39:50;;;;;;;3.80;1.80;;;18.10;51.40;;;;;;5055750;28;20024;-69
2022/04/09 11:42:16;;;;;;;3.67;1.70;;;18.20;51.40;;;;;;5055763;28;20360;-69
2022/04/09 11:44:43;;;;;;;3.13;1.90;;;18.20;51.30;;;;;;5055392;28;20520;-69
2022/04/09 11:47:10;;;;;;;4.32;1.80;;;18.30;51.30;;;;;;5055603;28;20032;-69
2022/04/09 11:49:36;;;;;;;2.45;1.75;;;18.40;51.20;;;;;;5054459;28;20029;-70
2022/04/09 11:52:02;;;;;;;4.15;1.67;;;18.40;51.20;;;;;;5055451;28;20071;-69
2022/04/09 11:54:31;;;;;;;4.80;1.73;;;18.50;51.20;;;;;;5055353;28;20037;-69
2022/04/09 11:56:57;;;;;;;4.50;1.77;;;18.50;51.10;;;;;;5055540;28;20017;-69
2022/04/09 11:59:23;;;;;;;3.75;1.75;;;18.60;51.10;;;;;;5055101;28;20123;-69
2022/04/09 12:01:51;;;;;;;4.50;2.00;;;18.60;51.10;;;;;;5055402;28;20081;-69
2022/04/09 12:04:18;;;;;;;2.85;1.70;;;18.60;51.10;;;;;;5055121;28;20458;-69
2022/04/09 12:06:44;;;;;;;2.53;1.70;;;18.60;51.10;;;;;;5055257;28;20033;-69
2022/04/09 12:09:10;;;;;;;2.92;1.45;;;18.60;51.10;;;;;;5054069;28;20036;-69
2022/04/09 12:11:41;;;;;;;2.30;1.90;;;18.60;51.20;;;;;;5055270;28;20455;-69
2022/04/09 12:14:17;;;;;;;2.30;2.05;;;18.60;51.30;;;;;;5053821;28;20098;-69
2022/04/09 12:16:43;;;;;;;3.55;1.63;;;18.60;51.40;;;;;;5055019;28;20444;-69
2022/04/09 12:19:09;;;;;;;4.50;1.80;;;18.70;51.40;;;;;;5055303;28;20021;-69
2022/04/09 12:21:35;;;;;;;1.88;1.75;;;18.70;51.20;;;;;;5054760;28;20501;-69
2022/04/09 12:24:05;;;;;;;6.05;1.88;;;18.80;51.20;;;;;;5054778;28;20339;-69
2022/04/09 12:26:33;;;;;;;4.95;1.70;;;18.70;51.20;;;;;;5054898;28;20051;-69
2022/04/09 12:29:24;;;;;;;3.10;1.77;;;18.80;51.20;;;;;;5053781;28;20029;-70
2022/04/09 12:31:51;;;;;;;2.72;1.83;;;18.80;51.20;;;;;;5054824;28;20378;-70
2022/04/09 12:34:21;;;;;;;2.13;1.70;;;18.80;51.20;;;;;;5054622;28;20029;-69
2022/04/09 12:37:06;;;;;;;2.63;1.60;;;18.80;51.20;;;;;;5055012;28;20028;-69
2022/04/09 12:39:33;;;;;;;4.43;1.90;;;18.80;51.20;;;;;;5054714;28;20048;-69
2022/04/09 12:42:00;;;;;;;3.33;1.70;;;18.80;51.20;;;;;;5054609;28;20037;-69
2022/04/09 12:44:26;;;;;;;2.55;1.60;;;18.80;51.20;;;;;;5054366;28;20029;-70
2022/04/09 12:46:53;;;;;;;2.95;1.70;;;18.90;51.30;;;;;;5054661;28;20037;-70
2022/04/09 12:49:24;;;;;;;1.98;1.67;;;18.90;51.20;;;;;;5053436;28;20383;-69
2022/04/09 12:51:50;;;;;;;3.22;1.90;;;18.90;51.20;;;;;;5054454;28;20378;-69
2022/04/09 12:54:15;;;;;;;3.95;2.08;;;18.90;51.20;;;;;;5054579;28;20109;-69
2022/04/09 12:56:41;;;;;;;2.67;1.90;;;18.90;51.20;;;;;;5054391;28;20039;-69
2022/04/09 12:59:07;;;;;;;2.00;1.80;;;18.90;51.20;;;;;;5053766;28;20021;-69